KFYM/FYM METAR and TAF weather

Enter ICAO airport designator
Station Type Date Time Source
KFYM METAR 2022/01/26 13:40 UTC NOAA

KFYM 261340Z AUTO 01009KT 10SM CLR M06/M12 A3040 RMK A01


Station Type Date Time Source
KFYM Decoded METAR 2022/01/26 13:40 UTC NOAA

Station name not available
Jan 26, 2022 - 08:40 AM EST / 2022.01.26 1340 UTC
Wind: from the N (010 degrees) at 10 MPH (9 KT):0
Visibility: 10 mile(s):0
Sky conditions: clear
Temperature: 21 F (-6 C)
Windchill: 10 F (-12 C):1
Dew Point: 10 F (-12 C)
Relative Humidity: 62%
Pressure (altimeter): 30.4 in. Hg (1029 hPa)
ob: KFYM 261340Z AUTO 01009KT 10SM CLR M06/M12 A3040 RMK A01
cycle: 13

Station Type Date Time Source
KFYM TAF 2009/08/31 19:45 UTC NOAA

METAR KFYM 311945Z AUTO 01006KT 10SM CLR 26/11 A3009
RMK AO1 T02550111 $

Example: see airport list